Hafnia Magellan — 9V3279 — position and weather

sailwx.info

Track history (hours):
 
Tides and Currents Weather Stations Pressure Air Temp Water Temp Dewpoint Dewpoint Depression Visibility Wind Speed Wind Dir Waves Ship Positions

Hafnia Magellan

Last reported at 2018-Jan-22 19:23 UTC. Time now 2018-Jan-23 00:13 UTC.
Position N 55°18' E 011°03'.

Length 184 m; draft 11.2 m.

Type: Tanker. MMSI: 566573000.

Date/timePositionNaut miles runAvg speedWind from/ knotsBaromVisibWave heightAir tempDewpointWater temp
2018-Jan-22 19:23N 55°18' E 011°03'612.0
2018-Jan-22 18:55N 55°12' E 011°06'511.6
2018-Jan-22 18:31N 55°09' E 010°60'612.4
2018-Jan-22 18:00N 55°03' E 011°00'612.2
2018-Jan-22 17:30N 54°57' E 010°55'612.8
2018-Jan-22 17:00N 54°52' E 010°50'612.9
2018-Jan-22 16:30N 54°45' E 010°48'511.0
2018-Jan-22 16:01N 54°40' E 010°48'612.4
2018-Jan-22 15:30N 54°37' E 010°58'612.3
2018-Jan-22 15:00N 54°36' E 011°08'612.4
2018-Jan-22 14:30N 54°34' E 011°18'612.5
2018-Jan-22 14:00N 54°31' E 011°28'612.3
2018-Jan-22 13:30N 54°29' E 011°38'612.2
2018-Jan-22 13:00N 54°27' E 011°48'612.2
2018-Jan-22 12:30N 54°26' E 011°58'612.1
2018-Jan-22 12:00N 54°26' E 012°09'510.6
2018-Jan-22 11:30N 54°31' E 012°13'510.8
2018-Jan-22 11:00N 54°36' E 012°16'5410.7
2018-Jan-22 05:58N 54°59' E 013°41'612.0
2018-Jan-22 05:26N 55°01' E 013°51'811.5
2018-Jan-22 04:44N 55°05' E 014°04'1411.9
2018-Jan-22 03:34N 55°15' E 014°20'111.9
2018-Jan-22 03:30N 55°16' E 014°21'611.9
2018-Jan-22 03:00N 55°21' E 014°27'611.8
2018-Jan-22 02:30N 55°25' E 014°34'611.6
2018-Jan-22 01:59N 55°29' E 014°43'611.8
2018-Jan-22 01:30N 55°31' E 014°51'612.1
2018-Jan-22 01:00N 55°34' E 015°01'612.2
2018-Jan-22 00:30N 55°37' E 015°10'612.1
2018-Jan-22 00:00N 55°39' E 015°20'612.1
2018-Jan-21 23:30N 55°41' E 015°31'612.1
2018-Jan-21 23:00N 55°42' E 015°41'612.2
2018-Jan-21 22:30N 55°44' E 015°52'612.1
2018-Jan-21 22:00N 55°45' E 016°02'612.1
2018-Jan-21 21:30N 55°47' E 016°13'612.1
2018-Jan-21 21:00N 55°48' E 016°23'612.0
2018-Jan-21 20:30N 55°50' E 016°33'612.1
2018-Jan-21 20:00N 55°51' E 016°44'30111.8
2018-Jan-20 18:32N 59°35' E 022°60'012.7
2018-Jan-20 18:30N 59°35' E 023°01'612.6
2018-Jan-20 18:00N 59°36' E 023°13'613.1
2018-Jan-20 17:30N 59°38' E 023°25'713.0
2018-Jan-20 17:00N 59°40' E 023°37'612.7
2018-Jan-20 16:30N 59°42' E 023°49'612.7
2018-Jan-20 16:00N 59°44' E 024°01'612.5
2018-Jan-20 15:30N 59°46' E 024°13'612.8
2018-Jan-20 15:00N 59°47' E 024°25'613.0
2018-Jan-20 14:30N 59°49' E 024°38'613.0
2018-Jan-20 14:00N 59°50' E 024°51'612.7
2018-Jan-20 13:30N 59°51' E 025°03'3512.6
2018-Jan-20 10:42N 59°58' E 026°12'212.6
2018-Jan-20 10:30N 59°59' E 026°17'612.5
2018-Jan-20 10:00N 60°01' E 026°29'612.1
2018-Jan-20 09:30N 60°01' E 026°41'612.3
2018-Jan-20 09:00N 60°00' E 026°53'612.1
2018-Jan-20 08:30N 60°00' E 027°05'612.7
2018-Jan-20 08:00N 60°03' E 027°16'612.8
2018-Jan-20 07:30N 60°06' E 027°27'612.2
2018-Jan-20 07:00N 60°10' E 027°38'612.0
2018-Jan-20 06:30N 60°13' E 027°48'612.7
2018-Jan-20 06:00N 60°18' E 027°55'612.5
2018-Jan-20 05:30N 60°23' E 028°02'4 8.0
2018-Jan-20 05:00N 60°25' E 028°09'5 9.1
2018-Jan-20 04:30N 60°27' E 028°17'2 0.1
2018-Jan-18 21:44N 60°28' E 028°21'311.5
2018-Jan-18 21:30N 60°26' E 028°18'610.9
2018-Jan-18 21:00N 60°25' E 028°07'2 5.0
2018-Jan-18 20:30N 60°23' E 028°04'2 3.9
2018-Jan-18 20:00N 60°21' E 028°01'3 5.6
2018-Jan-18 19:30N 60°19' E 027°58'3 6.5
2018-Jan-18 19:01N 60°17' E 027°54'4 7.1
2018-Jan-18 18:30N 60°13' E 027°50'3 6.8
2018-Jan-18 18:00N 60°11' E 027°46'3 6.8
2018-Jan-18 17:30N 60°09' E 027°40'3 6.9
2018-Jan-18 17:01N 60°07' E 027°35'3 6.8
2018-Jan-18 16:31N 60°05' E 027°29'3 6.6
2018-Jan-18 16:00N 60°04' E 027°23'3 6.5
2018-Jan-18 15:30N 60°02' E 027°17'5 9.5
2018-Jan-18 15:00N 59°59' E 027°09'510.5
2018-Jan-18 14:30N 59°58' E 026°59'611.1
2018-Jan-18 14:00N 59°59' E 026°48'510.9
2018-Jan-18 13:30N 59°59' E 026°37'611.2
2018-Jan-18 13:01N 59°58' E 026°27'611.2
2018-Jan-18 12:31N 59°56' E 026°16'3911.2
2018-Jan-18 09:02N 59°47' E 024°60'011.1
2018-Jan-18 09:00N 59°47' E 024°59'611.2
2018-Jan-18 08:30N 59°46' E 024°49'611.2
2018-Jan-18 08:01N 59°45' E 024°38'611.1
2018-Jan-18 07:31N 59°44' E 024°27'710.8
2018-Jan-18 06:53N 59°42' E 024°14'411.4
2018-Jan-18 06:30N 59°40' E 024°06'611.3
2018-Jan-18 05:58N 59°39' E 023°55'511.4
2018-Jan-18 05:31N 59°37' E 023°45'611.8
2018-Jan-18 05:01N 59°35' E 023°34'612.1
2018-Jan-18 04:31N 59°33' E 023°23'611.8
2018-Jan-18 04:00N 59°31' E 023°11'  
Track history (hours):
 
Tides and Currents Weather Stations Pressure Air Temp Water Temp Dewpoint Dewpoint Depression Visibility Wind Speed Wind Dir Waves Ship Positions

Hafnia Magellan

Last reported at 2018-Jan-22 19:23 UTC. Time now 2018-Jan-23 00:13 UTC.
Position N 55°18' E 011°03'.

Length 184 m; draft 11.2 m.

Type: Tanker. MMSI: 566573000.

Date/timePositionNaut miles runAvg speedWind from/ knotsBaromVisibWave heightAir tempDewpointWater temp
2018-Jan-22 19:23N 55°18' E 011°03'612.0
2018-Jan-22 18:55N 55°12' E 011°06'511.6
2018-Jan-22 18:31N 55°09' E 010°60'612.4
2018-Jan-22 18:00N 55°03' E 011°00'612.2
2018-Jan-22 17:30N 54°57' E 010°55'612.8
2018-Jan-22 17:00N 54°52' E 010°50'612.9
2018-Jan-22 16:30N 54°45' E 010°48'511.0
2018-Jan-22 16:01N 54°40' E 010°48'612.4
2018-Jan-22 15:30N 54°37' E 010°58'612.3
2018-Jan-22 15:00N 54°36' E 011°08'612.4
2018-Jan-22 14:30N 54°34' E 011°18'612.5
2018-Jan-22 14:00N 54°31' E 011°28'612.3
2018-Jan-22 13:30N 54°29' E 011°38'612.2
2018-Jan-22 13:00N 54°27' E 011°48'612.2
2018-Jan-22 12:30N 54°26' E 011°58'612.1
2018-Jan-22 12:00N 54°26' E 012°09'510.6
2018-Jan-22 11:30N 54°31' E 012°13'510.8
2018-Jan-22 11:00N 54°36' E 012°16'5410.7
2018-Jan-22 05:58N 54°59' E 013°41'612.0
2018-Jan-22 05:26N 55°01' E 013°51'811.5
2018-Jan-22 04:44N 55°05' E 014°04'1411.9
2018-Jan-22 03:34N 55°15' E 014°20'111.9
2018-Jan-22 03:30N 55°16' E 014°21'611.9
2018-Jan-22 03:00N 55°21' E 014°27'611.8
2018-Jan-22 02:30N 55°25' E 014°34'611.6
2018-Jan-22 01:59N 55°29' E 014°43'611.8
2018-Jan-22 01:30N 55°31' E 014°51'612.1
2018-Jan-22 01:00N 55°34' E 015°01'612.2
2018-Jan-22 00:30N 55°37' E 015°10'612.1
2018-Jan-22 00:00N 55°39' E 015°20'612.1
2018-Jan-21 23:30N 55°41' E 015°31'612.1
2018-Jan-21 23:00N 55°42' E 015°41'612.2
2018-Jan-21 22:30N 55°44' E 015°52'612.1
2018-Jan-21 22:00N 55°45' E 016°02'612.1
2018-Jan-21 21:30N 55°47' E 016°13'612.1
2018-Jan-21 21:00N 55°48' E 016°23'612.0
2018-Jan-21 20:30N 55°50' E 016°33'612.1
2018-Jan-21 20:00N 55°51' E 016°44'30111.8
2018-Jan-20 18:32N 59°35' E 022°60'012.7
2018-Jan-20 18:30N 59°35' E 023°01'612.6
2018-Jan-20 18:00N 59°36' E 023°13'613.1
2018-Jan-20 17:30N 59°38' E 023°25'713.0
2018-Jan-20 17:00N 59°40' E 023°37'612.7
2018-Jan-20 16:30N 59°42' E 023°49'612.7
2018-Jan-20 16:00N 59°44' E 024°01'612.5
2018-Jan-20 15:30N 59°46' E 024°13'612.8
2018-Jan-20 15:00N 59°47' E 024°25'613.0
2018-Jan-20 14:30N 59°49' E 024°38'613.0
2018-Jan-20 14:00N 59°50' E 024°51'612.7
2018-Jan-20 13:30N 59°51' E 025°03'3512.6
2018-Jan-20 10:42N 59°58' E 026°12'212.6
2018-Jan-20 10:30N 59°59' E 026°17'612.5
2018-Jan-20 10:00N 60°01' E 026°29'612.1
2018-Jan-20 09:30N 60°01' E 026°41'612.3
2018-Jan-20 09:00N 60°00' E 026°53'612.1
2018-Jan-20 08:30N 60°00' E 027°05'612.7
2018-Jan-20 08:00N 60°03' E 027°16'612.8
2018-Jan-20 07:30N 60°06' E 027°27'612.2
2018-Jan-20 07:00N 60°10' E 027°38'612.0
2018-Jan-20 06:30N 60°13' E 027°48'612.7
2018-Jan-20 06:00N 60°18' E 027°55'612.5
2018-Jan-20 05:30N 60°23' E 028°02'4 8.0
2018-Jan-20 05:00N 60°25' E 028°09'5 9.1
2018-Jan-20 04:30N 60°27' E 028°17'2 0.1
2018-Jan-18 21:44N 60°28' E 028°21'311.5
2018-Jan-18 21:30N 60°26' E 028°18'610.9
2018-Jan-18 21:00N 60°25' E 028°07'2 5.0
2018-Jan-18 20:30N 60°23' E 028°04'2 3.9
2018-Jan-18 20:00N 60°21' E 028°01'3 5.6
2018-Jan-18 19:30N 60°19' E 027°58'3 6.5
2018-Jan-18 19:01N 60°17' E 027°54'4 7.1
2018-Jan-18 18:30N 60°13' E 027°50'3 6.8
2018-Jan-18 18:00N 60°11' E 027°46'3 6.8
2018-Jan-18 17:30N 60°09' E 027°40'3 6.9
2018-Jan-18 17:01N 60°07' E 027°35'3 6.8
2018-Jan-18 16:31N 60°05' E 027°29'3 6.6
2018-Jan-18 16:00N 60°04' E 027°23'3 6.5
2018-Jan-18 15:30N 60°02' E 027°17'5 9.5
2018-Jan-18 15:00N 59°59' E 027°09'510.5
2018-Jan-18 14:30N 59°58' E 026°59'611.1
2018-Jan-18 14:00N 59°59' E 026°48'510.9
2018-Jan-18 13:30N 59°59' E 026°37'611.2
2018-Jan-18 13:01N 59°58' E 026°27'611.2
2018-Jan-18 12:31N 59°56' E 026°16'3911.2
2018-Jan-18 09:02N 59°47' E 024°60'011.1
2018-Jan-18 09:00N 59°47' E 024°59'611.2
2018-Jan-18 08:30N 59°46' E 024°49'611.2
2018-Jan-18 08:01N 59°45' E 024°38'611.1
2018-Jan-18 07:31N 59°44' E 024°27'710.8
2018-Jan-18 06:53N 59°42' E 024°14'411.4
2018-Jan-18 06:30N 59°40' E 024°06'611.3
2018-Jan-18 05:58N 59°39' E 023°55'511.4
2018-Jan-18 05:31N 59°37' E 023°45'611.8
2018-Jan-18 05:01N 59°35' E 023°34'612.1
2018-Jan-18 04:31N 59°33' E 023°23'611.8
2018-Jan-18 04:00N 59°31' E 023°11'  

Dump ship's entire track history